createdAt,value
2022-09-21T00:01:09.651Z,4.75
2022-09-21T00:03:44.383Z,4.03
2022-09-21T00:06:17.299Z,4.30
2022-09-21T00:08:49.036Z,2.72
2022-09-21T00:11:21.521Z,4.43
2022-09-21T00:13:55.728Z,4.85
2022-09-21T00:16:26.547Z,7.68
2022-09-21T00:19:00.661Z,4.72
2022-09-21T00:21:32.369Z,5.40
2022-09-21T00:24:03.313Z,2.75
2022-09-21T00:26:34.330Z,5.13
2022-09-21T00:29:07.468Z,4.07
2022-09-21T00:31:38.248Z,4.85
2022-09-21T00:34:12.033Z,3.63
2022-09-21T00:36:42.988Z,4.88
2022-09-21T00:39:13.968Z,3.60
2022-09-21T00:41:45.013Z,4.50
2022-09-21T00:44:34.580Z,4.18
2022-09-21T00:47:09.658Z,7.03
2022-09-21T00:49:44.376Z,4.80
2022-09-21T00:52:16.689Z,5.65
2022-09-21T00:54:52.012Z,4.25
2022-09-21T00:57:24.603Z,1.95
2022-09-21T00:59:59.081Z,5.10
2022-09-21T01:02:30.066Z,3.88
2022-09-21T01:05:03.881Z,5.70
2022-09-21T01:07:38.875Z,5.93
2022-09-21T01:10:14.703Z,4.35
2022-09-21T01:12:56.090Z,5.65
2022-09-21T01:15:38.395Z,3.85
2022-09-21T01:18:17.039Z,3.20
2022-09-21T01:21:23.601Z,4.22
2022-09-21T01:24:19.223Z,7.18
2022-09-21T01:27:15.131Z,5.07
2022-09-21T01:29:52.667Z,5.95
2022-09-21T01:32:30.234Z,5.50
2022-09-21T01:35:05.168Z,5.05
2022-09-21T01:37:40.716Z,5.68
2022-09-21T01:40:16.239Z,5.60
2022-09-21T01:42:51.543Z,5.38
2022-09-21T01:45:30.200Z,6.25
2022-09-21T01:48:02.671Z,4.82
2022-09-21T01:50:38.635Z,4.13
2022-09-21T01:53:14.684Z,3.30
2022-09-21T01:55:50.059Z,5.77
2022-09-21T01:58:27.320Z,6.95
2022-09-21T02:01:01.194Z,6.10
2022-09-21T02:03:39.109Z,5.50
2022-09-21T02:06:11.241Z,4.82
2022-09-21T02:08:42.408Z,6.82
2022-09-21T02:11:14.264Z,7.30
2022-09-21T02:13:48.538Z,6.75
2022-09-21T02:16:48.029Z,5.13
2022-09-21T02:19:26.426Z,6.78
2022-09-21T02:22:03.521Z,6.20
2022-09-21T02:24:41.669Z,6.80
2022-09-21T02:27:25.193Z,4.50
2022-09-21T02:30:01.822Z,3.88
2022-09-21T02:32:43.955Z,5.70
2022-09-21T02:35:22.717Z,6.97
2022-09-21T02:37:58.160Z,5.85
2022-09-21T02:40:33.688Z,4.90
2022-09-21T02:43:13.928Z,5.57
2022-09-21T02:45:51.211Z,6.25
2022-09-21T02:48:31.224Z,4.70
2022-09-21T02:51:09.191Z,6.97
2022-09-21T02:53:42.110Z,6.30
2022-09-21T02:56:13.830Z,5.07
2022-09-21T02:58:48.590Z,6.35
2022-09-21T03:01:20.884Z,8.07
2022-09-21T03:03:54.212Z,5.30
2022-09-21T03:06:24.957Z,7.60
2022-09-21T03:08:58.224Z,6.00
2022-09-21T03:11:29.389Z,6.60
2022-09-21T03:14:00.131Z,6.85
2022-09-21T03:16:31.097Z,5.93
2022-09-21T03:19:04.474Z,5.45
2022-09-21T03:21:35.473Z,4.28
2022-09-21T03:24:06.548Z,5.50
2022-09-21T03:26:37.262Z,5.68
2022-09-21T03:29:08.792Z,5.25
2022-09-21T03:31:39.490Z,5.20
2022-09-21T03:34:13.800Z,4.47
2022-09-21T03:36:44.534Z,6.53
2022-09-21T03:39:15.617Z,6.10
2022-09-21T03:41:46.372Z,5.57
2022-09-21T03:44:17.962Z,6.70
2022-09-21T03:46:48.989Z,5.53
2022-09-21T03:49:22.754Z,4.55
2022-09-21T03:51:53.723Z,6.20
2022-09-21T03:54:25.987Z,5.75
2022-09-21T03:56:56.844Z,6.35
2022-09-21T03:59:27.576Z,5.55
2022-09-21T04:01:58.513Z,8.60
2022-09-21T04:04:31.803Z,7.15
2022-09-21T04:07:02.832Z,4.60
2022-09-21T04:09:33.822Z,8.13
2022-09-21T04:12:05.036Z,6.55
2022-09-21T04:14:35.719Z,5.63
2022-09-21T04:17:06.701Z,5.75
2022-09-21T04:19:40.004Z,5.55
2022-09-21T04:22:12.269Z,5.68
2022-09-21T04:24:44.024Z,6.00
2022-09-21T04:27:15.009Z,6.32
2022-09-21T04:29:45.916Z,9.48
2022-09-21T04:32:16.644Z,6.88
2022-09-21T04:34:50.134Z,7.28
2022-09-21T04:37:20.945Z,8.40
2022-09-21T04:39:51.801Z,6.07
2022-09-21T04:42:23.512Z,8.25
2022-09-21T04:44:54.269Z,6.32
2022-09-21T04:47:25.803Z,5.95
2022-09-21T04:49:59.202Z,6.53
2022-09-21T04:52:30.002Z,8.68
2022-09-21T04:55:00.732Z,5.30
2022-09-21T04:57:31.755Z,6.18
2022-09-21T05:00:02.671Z,6.22
2022-09-21T05:02:33.891Z,8.73
2022-09-21T05:05:07.865Z,5.47
2022-09-21T05:07:38.607Z,5.63
2022-09-21T05:10:08.893Z,5.72
2022-09-21T05:12:41.181Z,7.88
2022-09-21T05:15:13.292Z,6.05
2022-09-21T05:17:44.741Z,5.85
2022-09-21T05:20:18.231Z,6.22
2022-09-21T05:22:49.028Z,5.75
2022-09-21T05:25:20.853Z,7.00
2022-09-21T05:27:51.886Z,7.28
2022-09-21T05:30:24.848Z,5.38
2022-09-21T05:33:04.530Z,7.28
2022-09-21T05:35:43.687Z,6.53
2022-09-21T05:38:19.907Z,7.90
2022-09-21T05:40:51.771Z,7.45
2022-09-21T05:43:23.156Z,6.95
2022-09-21T05:46:01.804Z,8.60
2022-09-21T05:48:39.372Z,6.55
2022-09-21T05:51:21.754Z,8.50
2022-09-21T05:54:00.249Z,7.05
2022-09-21T05:56:46.706Z,8.05
2022-09-21T05:59:45.278Z,7.72
2022-09-21T06:02:26.778Z,6.50
2022-09-21T06:05:00.955Z,7.18
2022-09-21T06:07:34.805Z,7.30
2022-09-21T06:10:05.732Z,5.43
2022-09-21T06:12:36.433Z,7.95
2022-09-21T06:15:08.072Z,7.75
2022-09-21T06:17:39.031Z,7.88
2022-09-21T06:20:11.898Z,5.63
2022-09-21T06:22:45.535Z,6.20
2022-09-21T06:25:16.520Z,6.65
2022-09-21T06:27:47.653Z,7.03
2022-09-21T06:30:18.734Z,10.18
2022-09-21T06:32:49.761Z,6.97
2022-09-21T06:35:20.616Z,6.38
2022-09-21T06:37:54.083Z,7.13
2022-09-21T06:40:25.037Z,8.75
2022-09-21T06:43:00.441Z,8.55
2022-09-21T06:45:33.817Z,6.35
2022-09-21T06:48:05.366Z,9.23
2022-09-21T06:50:37.014Z,7.07
2022-09-21T06:53:10.970Z,6.38
2022-09-21T06:55:41.820Z,7.70
2022-09-21T06:58:12.871Z,6.43
2022-09-21T07:00:44.113Z,7.75
2022-09-21T07:03:16.025Z,7.72
2022-09-21T07:05:49.867Z,4.38
2022-09-21T07:11:15.483Z,6.97
2022-09-21T07:13:46.466Z,8.90
2022-09-21T07:16:17.490Z,7.95
2022-09-21T07:18:49.219Z,6.32
2022-09-21T07:21:20.270Z,6.60
2022-09-21T07:23:54.214Z,4.10
2022-09-21T07:26:25.519Z,5.30
2022-09-21T07:28:56.426Z,5.03
2022-09-21T07:31:27.527Z,7.15
2022-09-21T07:34:01.278Z,4.68
2022-09-21T07:36:32.109Z,4.97
2022-09-21T07:39:06.172Z,8.00
2022-09-21T07:41:36.918Z,7.43
2022-09-21T07:44:08.080Z,7.13
2022-09-21T07:46:43.046Z,4.82
2022-09-21T07:49:18.243Z,5.13
2022-09-21T07:51:48.987Z,6.78
2022-09-21T07:54:22.672Z,6.38
2022-09-21T07:57:05.549Z,8.38
2022-09-21T07:59:37.923Z,5.25
2022-09-21T08:02:09.055Z,6.15
2022-09-21T08:04:40.508Z,7.43
2022-09-21T08:07:11.273Z,5.28
2022-09-21T08:09:45.470Z,6.45
2022-09-21T08:12:18.872Z,6.28
2022-09-21T08:14:50.298Z,5.70
2022-09-21T08:17:21.021Z,5.05
2022-09-21T08:19:51.881Z,5.65
2022-09-21T08:22:24.907Z,4.55
2022-09-21T08:24:58.212Z,3.65
2022-09-21T08:27:29.279Z,6.28
2022-09-21T08:29:59.983Z,5.30
2022-09-21T08:32:49.788Z,7.20
2022-09-21T08:35:20.995Z,3.60
2022-09-21T08:37:52.400Z,4.85
2022-09-21T08:40:26.148Z,6.38
2022-09-21T08:43:04.457Z,6.32
2022-09-21T08:45:41.216Z,6.57
2022-09-21T08:48:23.972Z,4.20
2022-09-21T08:51:00.668Z,6.53
2022-09-21T08:53:37.072Z,9.93
2022-09-21T08:56:14.167Z,6.35
2022-09-21T08:58:45.962Z,5.60
2022-09-21T09:01:36.969Z,5.28
2022-09-21T09:04:30.402Z,3.80
2022-09-21T09:07:21.707Z,3.90
2022-09-21T09:10:18.056Z,2.95
2022-09-21T09:13:03.988Z,7.82
2022-09-21T09:15:50.360Z,5.53
2022-09-21T09:18:31.051Z,4.60
2022-09-21T09:21:06.881Z,3.50
2022-09-21T09:23:43.138Z,5.35
2022-09-21T09:26:21.188Z,3.00
2022-09-21T09:28:58.014Z,5.35
2022-09-21T09:31:33.207Z,3.20
2022-09-21T09:34:12.540Z,4.32
2022-09-21T09:36:59.161Z,4.68
2022-09-21T09:39:33.675Z,3.00
2022-09-21T09:42:28.451Z,3.20
2022-09-21T09:45:14.056Z,3.88
2022-09-21T09:47:59.272Z,6.38
2022-09-21T09:50:33.493Z,5.43
2022-09-21T09:53:08.306Z,4.47
2022-09-21T09:55:41.584Z,6.55
2022-09-21T09:58:21.735Z,3.83
2022-09-21T10:00:58.882Z,2.35
2022-09-21T10:03:31.329Z,2.35
2022-09-21T10:06:02.569Z,1.98
2022-09-21T10:08:44.967Z,2.22
2022-09-21T10:11:17.910Z,3.42
2022-09-21T10:13:52.246Z,4.65
2022-09-21T10:16:27.299Z,2.13
2022-09-21T10:19:01.933Z,2.15
2022-09-21T10:21:39.650Z,4.22
2022-09-21T10:24:19.776Z,3.72
2022-09-21T10:26:54.846Z,6.32
2022-09-21T10:29:35.941Z,3.17
2022-09-21T10:32:21.965Z,2.88
2022-09-21T10:35:18.378Z,3.45
2022-09-21T10:37:53.959Z,2.88
2022-09-21T10:40:33.855Z,3.47
2022-09-21T10:43:04.906Z,4.10
2022-09-21T10:45:39.445Z,2.60
2022-09-21T10:48:21.960Z,4.22
2022-09-21T10:50:55.204Z,4.40
2022-09-21T10:53:28.871Z,3.65
2022-09-21T10:56:19.471Z,5.22
2022-09-21T10:59:16.103Z,4.45
2022-09-21T11:01:49.497Z,3.05
2022-09-21T11:04:32.058Z,6.50
2022-09-21T11:07:11.700Z,2.53
2022-09-21T11:09:46.850Z,6.45
2022-09-21T11:12:36.002Z,2.42
2022-09-21T11:15:35.223Z,2.42
2022-09-21T11:18:12.206Z,2.25
2022-09-21T11:23:32.014Z,1.80
2022-09-21T11:26:12.165Z,3.80
2022-09-21T11:28:49.202Z,2.08
2022-09-21T11:31:49.333Z,3.42
2022-09-21T11:34:59.084Z,2.95
2022-09-21T11:37:46.128Z,2.63
2022-09-21T11:40:43.053Z,3.40
2022-09-21T11:43:30.107Z,1.92
2022-09-21T11:46:11.525Z,2.75
2022-09-21T11:48:56.224Z,4.70
2022-09-21T11:51:46.217Z,2.22
2022-09-21T11:54:48.211Z,2.35
2022-09-21T11:57:29.059Z,3.20
2022-09-21T12:00:11.835Z,3.05
2022-09-21T12:03:15.024Z,2.80
2022-09-21T12:05:53.271Z,2.60
2022-09-21T12:08:46.146Z,1.23
2022-09-21T12:11:30.615Z,1.85
2022-09-21T12:14:08.153Z,0.82
2022-09-21T12:16:48.137Z,0.90
2022-09-21T12:19:28.550Z,1.77
2022-09-21T12:22:03.629Z,1.85
2022-09-21T12:24:39.429Z,1.23
2022-09-21T12:27:27.228Z,2.60
2022-09-21T12:30:04.045Z,1.60
2022-09-21T12:32:49.665Z,2.17
2022-09-21T12:35:26.909Z,0.55
2022-09-21T12:38:02.951Z,0.98
2022-09-21T12:40:43.665Z,2.37
2022-09-21T12:43:30.195Z,1.42
2022-09-21T12:46:07.204Z,0.60
2022-09-21T12:51:17.465Z,2.10
2022-09-21T12:53:51.478Z,1.10
2022-09-21T12:56:37.907Z,1.85
2022-09-21T12:59:26.213Z,2.00
2022-09-21T13:02:13.858Z,1.65
2022-09-21T13:04:56.832Z,0.68
2022-09-21T13:07:58.997Z,1.67
2022-09-21T13:10:55.392Z,5.00
2022-09-21T13:13:33.910Z,2.60
2022-09-21T13:16:10.094Z,1.05
2022-09-21T13:18:43.283Z,1.10
2022-09-21T13:21:22.596Z,3.35
2022-09-21T13:24:01.132Z,1.13
2022-09-21T13:26:39.585Z,1.92
2022-09-21T13:29:30.567Z,1.65
2022-09-21T13:32:05.594Z,2.08
2022-09-21T13:34:38.745Z,2.92
2022-09-21T13:37:36.786Z,2.72
2022-09-21T13:40:38.013Z,1.33
2022-09-21T13:43:28.095Z,0.63
2022-09-21T13:46:01.047Z,1.63
2022-09-21T13:48:35.036Z,0.77
2022-09-21T13:51:11.972Z,1.95
2022-09-21T13:53:44.566Z,0.60
2022-09-21T13:56:25.088Z,1.15
2022-09-21T13:58:58.481Z,0.63
2022-09-21T14:01:52.721Z,0.70
2022-09-21T14:04:29.860Z,0.88
2022-09-21T14:07:05.877Z,0.93
2022-09-21T14:09:44.867Z,1.73
2022-09-21T14:12:25.537Z,0.85
2022-09-21T14:15:14.125Z,1.55
2022-09-21T14:17:46.275Z,1.13
2022-09-21T14:20:39.137Z,1.30
2022-09-21T14:23:31.905Z,1.15
2022-09-21T14:26:03.351Z,1.73
2022-09-21T14:28:42.002Z,1.45
2022-09-21T14:31:20.913Z,2.25
2022-09-21T14:33:56.559Z,0.80
2022-09-21T14:36:42.457Z,2.55
2022-09-21T14:39:22.646Z,2.92
2022-09-21T14:41:56.520Z,1.60
2022-09-21T14:44:32.439Z,2.05
2022-09-21T14:47:31.722Z,0.57
2022-09-21T14:50:20.500Z,1.63
2022-09-21T14:53:28.413Z,2.33
2022-09-21T14:56:15.132Z,2.22
2022-09-21T14:58:57.521Z,2.40
2022-09-21T15:01:41.630Z,0.95
2022-09-21T15:04:32.397Z,0.43
2022-09-21T15:07:30.713Z,0.75
2022-09-21T15:10:36.641Z,1.55
2022-09-21T15:13:22.117Z,2.22
2022-09-21T15:16:10.400Z,0.95
2022-09-21T15:18:45.537Z,0.75
2022-09-21T15:21:27.043Z,0.93
2022-09-21T15:23:59.649Z,1.05
2022-09-21T15:26:33.419Z,3.20
2022-09-21T15:29:10.676Z,1.65
2022-09-21T15:31:44.964Z,0.85
2022-09-21T15:34:18.560Z,1.95
2022-09-21T15:36:52.235Z,1.38
2022-09-21T15:39:28.776Z,1.05
2022-09-21T15:42:23.278Z,1.90
2022-09-21T15:45:16.065Z,1.10
2022-09-21T15:47:46.948Z,1.40
2022-09-21T15:50:20.423Z,1.70
2022-09-21T15:52:54.738Z,2.03
2022-09-21T15:55:26.587Z,0.93
2022-09-21T15:57:59.352Z,4.03
2022-09-21T16:00:38.996Z,2.33
2022-09-21T16:03:24.108Z,0.98
2022-09-21T16:05:57.198Z,2.90
2022-09-21T16:08:35.648Z,0.70
2022-09-21T16:11:23.467Z,1.77
2022-09-21T16:14:15.103Z,2.42
2022-09-21T16:17:29.832Z,1.35
2022-09-21T16:20:20.320Z,2.40
2022-09-21T16:22:53.324Z,1.63
2022-09-21T16:25:34.492Z,1.00
2022-09-21T16:28:10.379Z,4.63
2022-09-21T16:30:47.748Z,3.22
2022-09-21T16:34:00.731Z,2.83
2022-09-21T16:36:44.197Z,2.22
2022-09-21T16:39:20.383Z,1.00
2022-09-21T16:41:56.034Z,1.95
2022-09-21T16:44:31.711Z,3.27
2022-09-21T16:47:04.759Z,1.42
2022-09-21T16:49:38.207Z,0.88
2022-09-21T16:52:09.363Z,1.35
2022-09-21T16:54:40.518Z,1.17
2022-09-21T16:57:15.416Z,1.67
2022-09-21T16:59:46.804Z,3.13
2022-09-21T17:02:17.901Z,1.83
2022-09-21T17:04:51.630Z,1.25
2022-09-21T17:07:22.376Z,1.58
2022-09-21T17:09:53.335Z,1.27
2022-09-21T17:12:24.349Z,3.58
2022-09-21T17:14:56.073Z,1.70
2022-09-21T17:17:29.887Z,3.28
2022-09-21T17:20:10.162Z,1.70
2022-09-21T17:22:41.402Z,0.75
2022-09-21T17:25:13.078Z,1.42
2022-09-21T17:27:46.187Z,4.15
2022-09-21T17:30:18.766Z,2.13
2022-09-21T17:32:50.492Z,1.17
2022-09-21T17:35:32.211Z,0.90
2022-09-21T17:38:03.703Z,1.90
2022-09-21T17:40:36.166Z,2.05
2022-09-21T17:43:24.040Z,0.80
2022-09-21T17:46:03.832Z,2.38
2022-09-21T17:48:35.939Z,2.15
2022-09-21T17:51:10.772Z,1.98
2022-09-21T17:53:40.776Z,0.70
2022-09-21T17:56:39.908Z,3.25
2022-09-21T17:59:26.566Z,0.90
2022-09-21T18:02:00.404Z,1.95
2022-09-21T18:04:35.346Z,0.90
2022-09-21T18:07:10.696Z,0.40
2022-09-21T18:09:42.667Z,1.52
2022-09-21T18:12:48.528Z,0.57
2022-09-21T18:15:27.658Z,1.25
2022-09-21T18:18:08.374Z,0.75
2022-09-21T18:20:51.356Z,1.20
2022-09-21T18:23:33.010Z,1.38
2022-09-21T18:26:05.214Z,1.67
2022-09-21T18:28:43.417Z,1.70
2022-09-21T18:31:36.013Z,1.92
2022-09-21T18:34:25.904Z,0.85
2022-09-21T18:37:08.293Z,1.85
2022-09-21T18:39:53.923Z,1.58
2022-09-21T18:42:40.178Z,1.15
2022-09-21T18:45:17.767Z,1.23
2022-09-21T18:47:57.711Z,1.45
2022-09-21T18:50:36.087Z,1.58
2022-09-21T18:53:22.529Z,1.65
2022-09-21T18:55:57.257Z,1.75
2022-09-21T18:58:30.343Z,2.63
2022-09-21T19:01:02.511Z,1.05
2022-09-21T19:03:34.182Z,1.23
2022-09-21T19:06:23.677Z,1.88
2022-09-21T19:09:02.370Z,1.65
2022-09-21T19:11:41.296Z,1.77
2022-09-21T19:14:19.743Z,5.13
2022-09-21T19:17:09.501Z,3.33
2022-09-21T19:19:47.946Z,3.20
2022-09-21T19:22:27.047Z,1.73
2022-09-21T19:25:07.471Z,1.60
2022-09-21T19:27:42.599Z,1.88
2022-09-21T19:30:15.289Z,5.30
2022-09-21T19:32:49.520Z,2.05
2022-09-21T19:35:24.622Z,2.50
2022-09-21T19:37:58.025Z,4.72
2022-09-21T19:40:32.686Z,3.13
2022-09-21T19:43:30.626Z,1.90
2022-09-21T19:46:14.681Z,3.67
2022-09-21T19:48:47.667Z,2.78
2022-09-21T19:51:22.959Z,4.28
2022-09-21T19:54:10.762Z,5.03
2022-09-21T19:57:00.820Z,1.17
2022-09-21T19:59:47.575Z,1.77
2022-09-21T20:02:23.091Z,4.60
2022-09-21T20:04:59.351Z,2.58
2022-09-21T20:07:44.644Z,3.45
2022-09-21T20:10:40.134Z,2.42
2022-09-21T20:13:22.178Z,3.15
2022-09-21T20:16:04.081Z,3.08
2022-09-21T20:18:44.119Z,2.55
2022-09-21T20:21:19.942Z,2.63
2022-09-21T20:23:52.360Z,2.42
2022-09-21T20:26:26.963Z,1.38
2022-09-21T20:28:58.920Z,1.95
2022-09-21T20:31:33.301Z,1.63
2022-09-21T20:34:04.362Z,3.47
2022-09-21T20:36:35.573Z,3.83
2022-09-21T20:39:07.044Z,2.80
2022-09-21T20:41:38.417Z,2.58
2022-09-21T20:44:09.205Z,1.83
2022-09-21T20:46:42.792Z,1.73
2022-09-21T20:49:16.341Z,3.33
2022-09-21T20:51:47.489Z,2.78
2022-09-21T20:54:18.611Z,1.95
2022-09-21T20:56:49.602Z,4.20
2022-09-21T20:59:21.431Z,2.63
2022-09-21T21:01:55.211Z,1.88
2022-09-21T21:04:26.379Z,2.55
2022-09-21T21:06:57.637Z,2.85
2022-09-21T21:09:28.767Z,2.63
2022-09-21T21:11:59.513Z,2.40
2022-09-21T21:14:30.510Z,1.45
2022-09-21T21:17:04.420Z,1.45
2022-09-21T21:19:35.625Z,1.25
2022-09-21T21:22:06.746Z,2.90
2022-09-21T21:24:44.270Z,1.60
2022-09-21T21:27:17.198Z,3.75
2022-09-21T21:29:50.292Z,2.13
2022-09-21T21:32:25.988Z,2.03
2022-09-21T21:34:57.736Z,2.05
2022-09-21T21:37:29.717Z,2.78
2022-09-21T21:40:00.705Z,2.83
2022-09-21T21:42:31.468Z,2.03
2022-09-21T21:45:02.523Z,3.42
2022-09-21T21:47:40.640Z,1.85
2022-09-21T21:50:13.084Z,1.77
2022-09-21T21:52:45.348Z,2.15
2022-09-21T21:55:16.168Z,3.97
2022-09-21T21:57:47.185Z,3.92
2022-09-21T22:00:18.591Z,2.25
2022-09-21T22:02:52.157Z,2.25
2022-09-21T22:05:22.976Z,6.63
2022-09-21T22:07:53.664Z,1.80
2022-09-21T22:10:24.949Z,5.18
2022-09-21T22:12:57.291Z,2.38
2022-09-21T22:15:30.570Z,2.22
2022-09-21T22:18:04.189Z,2.13
2022-09-21T22:20:34.911Z,2.03
2022-09-21T22:23:06.066Z,2.22
2022-09-21T22:25:36.774Z,2.22
2022-09-21T22:28:07.476Z,2.20
2022-09-21T22:30:39.342Z,2.03
2022-09-21T22:33:12.611Z,3.95
2022-09-21T22:35:43.360Z,3.25
2022-09-21T22:38:14.230Z,2.42
2022-09-21T22:40:45.927Z,5.78
2022-09-21T22:43:16.752Z,3.58
2022-09-21T22:45:47.503Z,3.20
2022-09-21T22:48:20.890Z,2.78
2022-09-21T22:50:51.601Z,2.83
2022-09-21T22:53:22.663Z,4.10
2022-09-21T22:56:05.084Z,2.35
2022-09-21T22:58:37.646Z,3.17
2022-09-21T23:01:09.829Z,2.28
2022-09-21T23:03:44.667Z,3.05
2022-09-21T23:06:17.872Z,4.22
2022-09-21T23:08:52.331Z,2.60
2022-09-21T23:11:24.520Z,2.65
2022-09-21T23:13:55.278Z,2.45
2022-09-21T23:16:26.724Z,2.97
2022-09-21T23:19:00.924Z,5.63
2022-09-21T23:21:32.808Z,4.18
2022-09-21T23:24:05.646Z,3.20
2022-09-21T23:26:37.093Z,3.38
2022-09-21T23:29:12.042Z,3.42
2022-09-21T23:31:45.494Z,3.33
2022-09-21T23:34:19.414Z,2.47
2022-09-21T23:36:50.119Z,3.58
2022-09-21T23:39:20.716Z,3.35
2022-09-21T23:41:51.479Z,3.65
2022-09-21T23:44:22.078Z,3.05
2022-09-21T23:46:52.837Z,2.97
2022-09-21T23:49:26.325Z,4.45
2022-09-21T23:51:56.981Z,2.15
2022-09-21T23:54:27.782Z,4.13
2022-09-21T23:56:58.406Z,3.95
2022-09-21T23:59:29.195Z,1.92
